Time;durP1;ratioP1;P1;durP2;ratioP2;P2;SDS_P1;SDS_P2;PMS_P1;PMS_P2;Temp;Humidity;BMP_temperature;BMP_pressure;BME280_temperature;BME280_humidity;BME280_pressure;Samples;Min_cycle;Max_cycle;Signal;HPM_P1;HPM_P2
2023/03/14 00:00:54;;;;;;;26.80;17.87;;;;;;;6.61;38.94;95130.06;4988139;28;20222;-66
2023/03/14 00:03:19;;;;;;;23.47;17.50;;;;;;;6.60;39.14;95124.00;4985419;28;20227;-67
2023/03/14 00:05:45;;;;;;;24.40;17.40;;;;;;;6.68;38.92;95117.31;4988796;28;20226;-66
2023/03/14 00:08:11;;;;;;;19.90;14.73;;;;;;;6.63;38.48;95108.06;4989961;28;20203;-66
2023/03/14 00:10:37;;;;;;;13.67;9.67;;;;;;;6.56;37.43;95112.13;4994563;28;20191;-66
2023/03/14 00:13:03;;;;;;;7.13;6.37;;;;;;;6.57;36.32;95102.50;4989429;28;20306;-66
2023/03/14 00:15:28;;;;;;;7.43;6.60;;;;;;;6.65;36.37;95105.31;4987752;28;20370;-66
2023/03/14 00:17:54;;;;;;;7.27;6.50;;;;;;;6.69;36.42;95109.34;4985866;28;20258;-66
2023/03/14 00:20:19;;;;;;;7.23;6.53;;;;;;;6.64;36.38;95098.44;4988259;28;20281;-64
2023/03/14 00:22:45;;;;;;;9.10;7.50;;;;;;;6.49;37.21;95094.47;4988124;28;20230;-64
2023/03/14 00:25:11;;;;;;;10.87;8.73;;;;;;;6.43;37.45;95090.56;4986842;28;20235;-64
2023/03/14 00:27:37;;;;;;;12.83;10.10;;;;;;;6.28;37.92;95081.34;4987844;28;20234;-64
2023/03/14 00:30:04;;;;;;;13.63;9.63;;;;;;;6.29;38.20;95083.03;4984702;28;20304;-64
2023/03/14 00:32:29;;;;;;;13.13;9.70;;;;;;;6.24;37.78;95079.97;4986846;28;20246;-65
2023/03/14 00:34:55;;;;;;;12.77;10.17;;;;;;;6.22;38.14;95069.63;4987152;28;20203;-64
2023/03/14 00:37:20;;;;;;;11.47;9.63;;;;;;;6.24;37.85;95069.50;4987266;28;20234;-64
2023/03/14 00:39:46;;;;;;;11.77;9.70;;;;;;;6.24;38.15;95077.34;4986856;28;20767;-64
2023/03/14 00:42:11;;;;;;;13.00;9.97;;;;;;;6.20;38.72;95071.53;4985680;28;20294;-63
2023/03/14 00:44:37;;;;;;;15.03;10.77;;;;;;;6.08;38.93;95065.53;4980960;28;20215;-64
2023/03/14 00:47:02;;;;;;;14.63;10.90;;;;;;;6.10;39.06;95058.41;4986462;28;20222;-63
2023/03/14 00:49:28;;;;;;;20.77;10.03;;;;;;;6.18;39.06;95063.84;4988371;28;20187;-63
2023/03/14 00:51:53;;;;;;;14.10;10.33;;;;;;;6.03;38.91;95065.06;4989154;28;20696;-63
2023/03/14 00:54:19;;;;;;;12.00;10.10;;;;;;;5.63;40.12;95060.34;4990997;28;20322;-63
2023/03/14 00:56:45;;;;;;;12.10;9.60;;;;;;;5.80;40.46;95060.81;4986853;28;20223;-65
2023/03/14 00:59:10;;;;;;;12.37;11.07;;;;;;;5.85;40.44;95058.66;4990554;28;20198;-64
2023/03/14 01:01:36;;;;;;;14.03;11.37;;;;;;;5.94;40.14;95064.03;4989628;28;20188;-64
2023/03/14 01:04:02;;;;;;;16.07;11.13;;;;;;;5.78;40.53;95058.34;4985234;28;20274;-64
2023/03/14 01:06:28;;;;;;;17.03;12.43;;;;;;;5.54;41.76;95061.09;4987442;28;20330;-64
2023/03/14 01:08:55;;;;;;;19.23;13.67;;;;;;;5.33;42.75;95049.72;4988124;28;20252;-64
2023/03/14 01:11:26;;;;;;;18.60;13.57;;;;;;;5.34;42.67;95049.59;4989589;28;20388;-64
2023/03/14 01:13:52;;;;;;;19.67;13.90;;;;;;;5.61;42.06;95057.03;4987923;28;20219;-64
2023/03/14 01:16:19;;;;;;;17.37;13.73;;;;;;;5.40;42.65;95038.72;4967233;28;20259;-64
2023/03/14 01:18:46;;;;;;;17.73;13.90;;;;;;;5.57;42.18;95041.78;4972238;28;20251;-64
2023/03/14 01:21:21;;;;;;;17.07;13.23;;;;;;;5.55;42.03;95041.88;4957662;28;20232;-64
2023/03/14 01:23:48;;;;;;;16.60;13.63;;;;;;;5.56;41.84;95035.72;4969178;28;20471;-64
2023/03/14 01:26:16;;;;;;;15.20;13.57;;;;;;;5.56;42.56;95029.66;4966129;28;20227;-64
2023/03/14 01:28:41;;;;;;;16.83;13.23;;;;;;;5.24;43.32;95033.84;4968253;28;20234;-64
2023/03/14 01:31:09;;;;;;;20.90;13.67;;;;;;;5.11;43.55;95030.53;4966390;28;20228;-64
2023/03/14 01:33:35;;;;;;;18.57;13.37;;;;;;;5.26;43.36;95026.72;4967519;28;20247;-64
2023/03/14 01:36:04;;;;;;;20.60;14.03;;;;;;;5.40;43.38;95025.66;4965474;28;20228;-64
2023/03/14 01:38:31;;;;;;;18.70;13.90;;;;;;;5.47;42.88;95033.81;4992511;28;20251;-64
2023/03/14 01:40:57;;;;;;;18.93;14.50;;;;;;;5.42;43.53;95015.91;4967481;28;20332;-64
2023/03/14 01:43:24;;;;;;;18.07;13.90;;;;;;;5.40;43.46;95017.00;4988307;28;20226;-65
2023/03/14 01:46:05;;;;;;;18.23;14.13;;;;;;;5.31;43.62;95027.19;4985998;28;20260;-64
2023/03/14 01:48:58;;;;;;;19.63;13.80;;;;;;;5.41;43.33;95018.66;4982017;28;20305;-65
2023/03/14 01:51:30;;;;;;;18.37;13.80;;;;;;;5.24;44.00;95007.78;4981972;28;20249;-66
2023/03/14 01:54:07;;;;;;;20.20;14.33;;;;;;;5.18;44.40;95007.41;4987059;28;20235;-66
2023/03/14 01:56:34;;;;;;;19.03;14.13;;;;;;;5.03;44.23;95012.88;4988826;28;20239;-66
2023/03/14 01:59:03;;;;;;;19.07;14.50;;;;;;;5.08;44.49;95012.53;4994717;28;20200;-66
2023/03/14 02:01:29;;;;;;;17.13;14.30;;;;;;;4.99;44.75;95003.63;4989847;28;20294;-66
2023/03/14 02:03:57;;;;;;;21.87;14.47;;;;;;;5.14;44.43;95012.03;4989889;28;20314;-66
2023/03/14 02:06:28;;;;;;;18.10;14.33;;;;;;;5.11;45.04;95001.03;4990258;28;20232;-66
2023/03/14 02:08:54;;;;;;;17.73;14.00;;;;;;;4.77;45.43;95014.88;5007693;28;20298;-67
2023/03/14 02:11:21;;;;;;;20.07;14.33;;;;;;;4.94;44.92;95010.13;4995786;28;20567;-66
2023/03/14 02:13:48;;;;;;;17.27;14.27;;;;;;;4.97;44.75;95002.94;5005174;28;20293;-66
2023/03/14 02:16:14;;;;;;;19.37;14.70;;;;;;;5.02;44.37;94998.16;4994208;28;20235;-66
2023/03/14 02:18:40;;;;;;;17.87;13.67;;;;;;;5.08;44.17;94999.50;4989174;28;20298;-66
2023/03/14 02:21:18;;;;;;;17.33;14.23;;;;;;;5.18;43.86;94997.00;4986925;28;20230;-65
2023/03/14 02:23:51;;;;;;;16.20;13.70;;;;;;;5.22;44.59;95001.03;4990911;28;20285;-65
2023/03/14 02:26:38;;;;;;;16.93;14.23;;;;;;;5.16;43.91;94993.66;5007960;28;20641;-67
2023/03/14 02:29:04;;;;;;;15.20;13.30;;;;;;;5.17;43.75;94990.13;4987084;28;20183;-66
2023/03/14 02:31:29;;;;;;;16.53;14.40;;;;;;;5.16;43.21;94991.06;4990280;28;20204;-66
2023/03/14 02:33:56;;;;;;;18.70;13.97;;;;;;;5.00;43.73;94994.88;4992036;28;20282;-65
2023/03/14 02:36:23;;;;;;;16.00;14.13;;;;;;;4.96;43.85;94985.63;4993327;28;20223;-65
2023/03/14 02:38:55;;;;;;;15.60;13.33;;;;;;;4.72;44.41;95001.34;4992000;28;20231;-66
2023/03/14 02:41:21;;;;;;;16.27;13.27;;;;;;;4.90;44.08;95003.50;4989964;28;20222;-65
2023/03/14 02:43:47;;;;;;;20.97;14.10;;;;;;;4.92;44.56;95005.06;4990344;28;20671;-66
2023/03/14 02:46:16;;;;;;;16.77;13.17;;;;;;;4.75;45.16;95015.91;4989434;28;20219;-66
2023/03/14 02:49:04;;;;;;;15.53;13.87;;;;;;;4.62;45.39;95008.19;5007048;28;20298;-66
2023/03/14 02:51:30;;;;;;;16.03;13.60;;;;;;;4.63;44.99;95007.28;5007368;28;20227;-66
2023/03/14 02:53:55;;;;;;;17.90;14.13;;;;;;;4.50;45.26;95011.75;4991029;28;20234;-66
2023/03/14 02:56:21;;;;;;;17.17;13.40;;;;;;;4.41;45.57;95011.50;4988767;28;20220;-66
2023/03/14 02:58:46;;;;;;;14.87;13.27;;;;;;;4.53;45.28;95008.91;4990335;28;20196;-65
2023/03/14 03:01:12;;;;;;;16.20;13.60;;;;;;;4.52;45.67;95018.50;4988150;28;20216;-65
2023/03/14 03:03:37;;;;;;;16.97;14.13;;;;;;;4.45;45.60;95014.69;4990460;28;20215;-66
2023/03/14 03:06:03;;;;;;;18.00;14.30;;;;;;;4.61;45.34;95016.97;4989907;28;20277;-65
2023/03/14 03:08:29;;;;;;;14.97;13.30;;;;;;;4.55;45.47;95015.66;4975582;28;20235;-65
2023/03/14 03:10:56;;;;;;;14.83;13.03;;;;;;;4.50;45.30;95017.78;4989697;28;20196;-65
2023/03/14 03:13:21;;;;;;;17.90;13.43;;;;;;;4.50;45.50;95009.97;4990149;28;20574;-66
2023/03/14 03:15:47;;;;;;;15.33;13.07;;;;;;;4.41;45.50;95023.66;4992848;28;20226;-65
2023/03/14 03:18:12;;;;;;;17.90;12.83;;;;;;;4.41;45.50;95008.03;4989922;28;20567;-65
2023/03/14 03:20:38;;;;;;;15.53;12.27;;;;;;;4.53;45.57;95001.09;4990217;28;20234;-65
2023/03/14 03:23:03;;;;;;;16.50;13.43;;;;;;;4.54;45.26;95000.13;4993962;28;20194;-65
2023/03/14 03:25:29;;;;;;;15.80;12.90;;;;;;;4.61;45.19;95011.75;4991495;28;20192;-65
2023/03/14 03:27:55;;;;;;;14.80;12.70;;;;;;;4.46;45.64;95010.28;4989737;28;20246;-65
2023/03/14 03:30:21;;;;;;;16.13;13.67;;;;;;;4.61;45.53;95016.97;4990019;28;20227;-65
2023/03/14 03:32:46;;;;;;;17.77;13.37;;;;;;;4.56;45.77;95008.66;4996097;28;20266;-65
2023/03/14 03:35:12;;;;;;;14.03;12.70;;;;;;;4.57;45.51;95013.78;4990894;28;20228;-65
2023/03/14 03:37:38;;;;;;;15.63;12.80;;;;;;;4.63;45.31;95002.88;4990533;28;20187;-65
2023/03/14 03:40:05;;;;;;;16.43;12.97;;;;;;;4.39;46.51;95005.56;4992994;28;20317;-66
2023/03/14 03:42:32;;;;;;;14.27;12.57;;;;;;;4.49;45.90;95005.72;4991476;28;20215;-66
2023/03/14 03:44:59;;;;;;;14.57;11.80;;;;;;;4.16;46.44;95007.25;4990544;28;20227;-66
2023/03/14 03:47:30;;;;;;;16.87;11.97;;;;;;;4.43;45.61;95012.19;4991154;28;20439;-65
2023/03/14 03:49:55;;;;;;;16.53;11.70;;;;;;;4.30;46.13;95019.25;4991007;28;20192;-65
2023/03/14 03:52:21;;;;;;;13.90;11.17;;;;;;;4.29;45.68;95015.00;4991576;28;20214;-65
2023/03/14 03:54:46;;;;;;;15.13;11.43;;;;;;;4.32;46.15;95017.34;4995367;28;20224;-65
2023/03/14 03:57:11;;;;;;;14.43;11.33;;;;;;;3.89;46.85;95023.09;4991868;28;20223;-65
2023/03/14 03:59:39;;;;;;;13.83;11.87;;;;;;;4.14;46.78;95023.91;4987715;28;20243;-65
2023/03/14 04:02:05;;;;;;;13.87;11.47;;;;;;;4.05;46.66;95032.41;4990588;28;20247;-66
2023/03/14 04:04:31;;;;;;;13.37;11.47;;;;;;;4.03;46.39;95026.47;5001099;28;20199;-65
2023/03/14 04:06:56;;;;;;;15.10;11.00;;;;;;;4.05;46.55;95027.22;4987113;28;20273;-65
2023/03/14 04:09:21;;;;;;;12.90;11.23;;;;;;;4.16;46.47;95024.66;4994697;28;20603;-66
2023/03/14 04:11:47;;;;;;;18.30;12.27;;;;;;;4.18;46.35;95022.78;4994969;28;20289;-66
2023/03/14 04:14:12;;;;;;;15.47;12.00;;;;;;;4.04;46.45;95017.75;4990803;28;20246;-65
2023/03/14 04:16:38;;;;;;;18.07;12.23;;;;;;;4.06;46.84;95021.88;4993728;28;20191;-64
2023/03/14 04:19:03;;;;;;;16.80;11.93;;;;;;;3.93;47.51;95006.34;4989794;28;20273;-64
2023/03/14 04:21:29;;;;;;;15.90;13.57;;;;;;;4.04;46.85;95010.78;4990441;28;20226;-64
2023/03/14 04:23:54;;;;;;;18.07;12.33;;;;;;;4.16;46.42;95004.66;4996604;28;20218;-64
2023/03/14 04:26:20;;;;;;;21.17;13.03;;;;;;;4.10;46.76;94994.69;4988116;28;20242;-64
2023/03/14 04:28:45;;;;;;;22.27;12.67;;;;;;;4.02;46.89;94996.22;4988933;28;20230;-63
2023/03/14 04:31:14;;;;;;;16.07;12.80;;;;;;;4.04;46.59;94994.34;4988314;28;20243;-65
2023/03/14 04:33:40;;;;;;;26.43;12.97;;;;;;;3.89;46.81;94989.28;4989725;28;20224;-65
2023/03/14 04:36:06;;;;;;;19.50;13.33;;;;;;;3.88;47.11;94990.25;4990524;28;20220;-66
2023/03/14 04:38:32;;;;;;;22.87;14.37;;;;;;;3.94;47.27;94995.00;4989171;28;20230;-66
2023/03/14 04:41:01;;;;;;;19.30;12.93;;;;;;;3.93;47.16;94982.13;4992189;28;20444;-65
2023/03/14 04:43:27;;;;;;;19.93;13.50;;;;;;;4.11;46.97;94985.13;4989488;28;20192;-66
2023/03/14 04:45:56;;;;;;;22.30;13.57;;;;;;;4.02;47.08;94972.78;4992082;28;20234;-65
2023/03/14 04:48:23;;;;;;;20.87;13.53;;;;;;;4.07;47.48;94979.31;4989261;28;20245;-66
2023/03/14 04:50:49;;;;;;;17.10;12.67;;;;;;;3.89;47.77;94976.28;4989337;28;20258;-63
2023/03/14 04:53:15;;;;;;;24.43;14.27;;;;;;;3.84;47.84;94978.38;4990722;28;20269;-64
2023/03/14 04:55:41;;;;;;;19.80;13.30;;;;;;;3.81;48.00;94973.41;5022469;28;20206;-64
2023/03/14 04:58:06;;;;;;;21.57;15.07;;;;;;;3.89;48.03;94968.47;4991525;28;20223;-64
2023/03/14 05:00:32;;;;;;;20.13;14.57;;;;;;;3.92;47.87;94968.25;4989400;28;20230;-64
2023/03/14 05:02:57;;;;;;;20.63;14.83;;;;;;;4.00;47.72;94970.28;4988055;28;20701;-64
2023/03/14 05:05:23;;;;;;;20.97;15.20;;;;;;;4.08;47.49;94967.13;4992149;28;20225;-64
2023/03/14 05:07:49;;;;;;;25.27;14.87;;;;;;;3.98;48.22;94969.56;4989915;28;20191;-65
2023/03/14 05:10:14;;;;;;;22.40;14.83;;;;;;;3.93;48.51;94969.09;4990322;28;20261;-65
2023/03/14 05:12:39;;;;;;;24.93;16.10;;;;;;;4.00;48.66;94974.69;4991357;28;20220;-63
2023/03/14 05:15:05;;;;;;;20.77;15.93;;;;;;;3.97;48.37;94968.75;4990480;28;20257;-64
2023/03/14 05:17:34;;;;;;;24.03;15.83;;;;;;;3.95;48.25;94965.44;4991177;28;20231;-65
2023/03/14 05:19:59;;;;;;;22.20;15.17;;;;;;;3.85;48.69;94974.00;4988802;28;20235;-64
2023/03/14 05:22:25;;;;;;;24.43;16.23;;;;;;;3.83;48.78;94968.94;4991764;28;20200;-65
2023/03/14 05:24:51;;;;;;;26.70;15.93;;;;;;;3.94;48.38;94974.19;4989113;28;20219;-64
2023/03/14 05:27:16;;;;;;;22.53;15.73;;;;;;;4.09;47.92;94967.03;4991149;28;20245;-68
2023/03/14 05:29:42;;;;;;;25.67;16.00;;;;;;;4.09;47.89;94967.03;4989323;28;20220;-64
2023/03/14 05:32:07;;;;;;;26.00;16.03;;;;;;;4.14;47.84;94962.31;4991834;28;20211;-64
2023/03/14 05:34:32;;;;;;;22.90;15.63;;;;;;;4.03;48.31;94962.25;4994184;28;20191;-65
2023/03/14 05:36:58;;;;;;;19.83;14.87;;;;;;;3.96;48.36;94964.50;4990193;28;20234;-63
2023/03/14 05:39:23;;;;;;;19.00;14.77;;;;;;;4.13;47.73;94957.22;4991960;28;20231;-64
2023/03/14 05:41:50;;;;;;;26.53;15.47;;;;;;;4.03;47.93;94966.63;4994161;28;20228;-66
2023/03/14 05:44:15;;;;;;;22.77;15.13;;;;;;;4.15;47.01;94963.16;4993409;28;20217;-66
2023/03/14 05:46:41;;;;;;;18.17;13.87;;;;;;;4.15;47.01;94957.94;4992543;28;20196;-67
2023/03/14 05:49:06;;;;;;;22.77;15.07;;;;;;;4.36;47.21;94963.31;4994680;28;20274;-65
2023/03/14 05:51:32;;;;;;;20.83;15.20;;;;;;;4.45;46.84;94967.81;4993924;28;20219;-65
2023/03/14 05:53:57;;;;;;;22.63;16.47;;;;;;;4.22;48.03;94966.09;4992357;28;20223;-64
2023/03/14 05:56:22;;;;;;;26.33;16.37;;;;;;;4.16;47.53;94970.81;4992914;28;20227;-66
2023/03/14 05:58:48;;;;;;;22.37;16.07;;;;;;;4.26;47.94;94970.97;4992306;28;20280;-65
2023/03/14 06:01:13;;;;;;;21.77;16.13;;;;;;;4.46;47.05;94960.81;4992253;28;20230;-65
2023/03/14 06:03:39;;;;;;;18.33;14.30;;;;;;;4.69;46.49;94953.88;4991956;28;20231;-65
2023/03/14 06:06:04;;;;;;;19.57;15.37;;;;;;;4.61;46.50;94959.69;4991146;28;20227;-65
2023/03/14 06:08:30;;;;;;;23.63;16.47;;;;;;;4.75;45.90;94956.00;4972398;28;20219;-65
2023/03/14 06:10:57;;;;;;;18.57;15.20;;;;;;;4.89;45.73;94957.53;4992748;28;20190;-65
2023/03/14 06:13:22;;;;;;;19.33;14.30;;;;;;;4.77;45.42;94954.13;4999464;28;20218;-64
2023/03/14 06:15:48;;;;;;;21.13;15.47;;;;;;;4.68;45.69;94949.59;4987136;28;20223;-63
2023/03/14 06:18:14;;;;;;;17.63;14.23;;;;;;;4.63;45.95;94947.38;4989920;28;20326;-65
2023/03/14 06:20:39;;;;;;;23.10;15.63;;;;;;;4.66;45.69;94952.34;4992588;28;20214;-65
2023/03/14 06:23:06;;;;;;;22.17;14.67;;;;;;;4.82;45.60;94954.59;4996018;28;20191;-65
2023/03/14 06:25:32;;;;;;;16.50;9.97;;;;;;;4.91;44.76;94959.09;4992631;28;20203;-65
2023/03/14 06:27:58;;;;;;;11.27;9.37;;;;;;;5.04;43.83;94957.19;4991826;28;20226;-65
2023/03/14 06:30:23;;;;;;;13.40;8.70;;;;;;;5.12;43.64;94953.16;4992085;28;20228;-64
2023/03/14 06:32:49;;;;;;;11.70;8.37;;;;;;;5.10;43.25;94953.28;4994661;28;20318;-64
2023/03/14 06:35:14;;;;;;;10.07;8.60;;;;;;;5.26;43.14;94958.09;4993485;28;20230;-64
2023/03/14 06:37:40;;;;;;;13.33;8.40;;;;;;;5.41;43.00;94962.13;4996916;28;20302;-64
2023/03/14 06:40:07;;;;;;;10.63;7.80;;;;;;;5.46;42.31;94965.19;4996301;28;20234;-63
2023/03/14 06:42:32;;;;;;;11.60;7.53;;;;;;;5.38;42.45;94956.34;5024523;28;20223;-65
2023/03/14 06:44:58;;;;;;;10.87;7.80;;;;;;;5.35;42.83;94951.38;4991290;28;20385;-65
2023/03/14 06:47:23;;;;;;;7.90;7.07;;;;;;;5.48;42.40;94947.66;4991992;28;20223;-65
2023/03/14 06:49:49;;;;;;;11.17;7.23;;;;;;;5.59;42.53;94948.59;4992050;28;20226;-64
2023/03/14 06:52:14;;;;;;;10.43;6.53;;;;;;;5.71;41.96;94940.56;4992906;28;20318;-64
2023/03/14 06:54:40;;;;;;;9.67;6.87;;;;;;;5.81;41.73;94934.63;4989697;28;20297;-65
2023/03/14 06:57:05;;;;;;;11.43;6.93;;;;;;;5.85;41.50;94931.63;4976564;28;20322;-64
2023/03/14 06:59:30;;;;;;;9.30;7.60;;;;;;;5.86;41.58;94937.69;4986879;28;20223;-66
2023/03/14 07:01:56;;;;;;;7.77;6.87;;;;;;;5.87;41.38;94929.72;4988845;28;20191;-65
2023/03/14 07:04:21;;;;;;;9.63;6.67;;;;;;;5.86;40.69;94930.69;4985362;28;20218;-64
2023/03/14 07:06:47;;;;;;;8.33;7.07;;;;;;;5.89;40.71;94916.56;4991346;28;20310;-64
2023/03/14 07:09:14;;;;;;;9.80;7.17;;;;;;;6.01;41.25;94915.56;4989155;28;20314;-64
2023/03/14 07:11:39;;;;;;;12.00;6.97;;;;;;;6.05;40.91;94918.78;4989130;28;20223;-64
2023/03/14 07:14:05;;;;;;;9.57;6.97;;;;;;;6.15;40.37;94919.66;4990988;28;20230;-64
2023/03/14 07:16:32;;;;;;;10.87;6.67;;;;;;;6.13;41.07;94911.97;4991374;28;20204;-64
2023/03/14 07:18:58;;;;;;;10.80;7.67;;;;;;;6.21;39.88;94903.50;4988881;28;20250;-64
2023/03/14 07:21:24;;;;;;;8.30;7.30;;;;;;;6.26;39.63;94908.34;4990366;28;20227;-63
2023/03/14 07:23:50;;;;;;;10.77;7.83;;;;;;;6.25;39.96;94909.28;4988699;28;20219;-64
2023/03/14 07:26:16;;;;;;;13.97;7.87;;;;;;;6.39;39.27;94898.53;4990000;28;20243;-64
2023/03/14 07:28:41;;;;;;;9.00;7.30;;;;;;;6.24;39.99;94908.44;4992403;28;20217;-64
2023/03/14 07:31:07;;;;;;;12.23;7.40;;;;;;;5.99;40.68;94911.44;4988567;28;20596;-64
2023/03/14 07:33:33;;;;;;;10.70;8.70;;;;;;;6.02;40.43;94909.41;4991964;28;20235;-65
2023/03/14 07:35:59;;;;;;;10.87;8.50;;;;;;;6.16;40.22;94910.88;4988423;28;20274;-66
2023/03/14 07:38:24;;;;;;;11.37;8.87;;;;;;;6.24;39.76;94897.19;4990694;28;20234;-66
2023/03/14 07:40:50;;;;;;;12.70;10.13;;;;;;;6.19;40.14;94900.16;4993566;28;20195;-66
2023/03/14 07:43:15;;;;;;;12.00;9.80;;;;;;;6.28;40.79;94898.56;4987231;28;20219;-66
2023/03/14 07:45:41;;;;;;;16.93;11.13;;;;;;;6.59;39.77;94884.56;4995184;28;20238;-67
2023/03/14 07:48:07;;;;;;;13.00;9.70;;;;;;;6.47;40.35;94887.41;4991135;28;20223;-64
2023/03/14 07:50:32;;;;;;;14.00;10.27;;;;;;;6.49;40.40;94882.88;4991423;28;20233;-64
2023/03/14 07:52:57;;;;;;;16.03;10.33;;;;;;;6.52;40.37;94886.06;4991265;28;20258;-64
2023/03/14 07:55:23;;;;;;;11.30;10.00;;;;;;;6.68;40.08;94889.97;4989518;28;20201;-64
2023/03/14 07:57:48;;;;;;;15.67;9.80;;;;;;;6.59;40.11;94883.75;4988345;28;20326;-64
2023/03/14 08:00:14;;;;;;;14.40;10.27;;;;;;;6.63;39.67;94883.38;4986976;28;20223;-64
2023/03/14 08:02:40;;;;;;;14.57;9.90;;;;;;;6.75;39.44;94881.47;4991174;28;20229;-64
2023/03/14 08:05:07;;;;;;;14.20;10.10;;;;;;;6.86;39.22;94883.16;4985533;28;20192;-62
2023/03/14 08:07:32;;;;;;;13.77;9.30;;;;;;;6.85;39.37;94889.38;4992307;28;20187;-66
2023/03/14 08:09:58;;;;;;;13.97;10.47;;;;;;;6.96;38.88;94881.41;4988174;28;20242;-67
2023/03/14 08:12:23;;;;;;;13.50;9.63;;;;;;;6.98;38.79;94879.50;4993171;28;20311;-64
2023/03/14 08:14:48;;;;;;;12.27;9.87;;;;;;;7.17;38.02;94883.13;4989004;28;20235;-64
2023/03/14 08:17:14;;;;;;;11.60;10.37;;;;;;;7.17;37.97;94883.13;4991130;28;20234;-62
2023/03/14 08:19:41;;;;;;;13.03;9.73;;;;;;;7.19;38.00;94878.56;4987692;28;20246;-66
2023/03/14 08:22:06;;;;;;;11.67;10.10;;;;;;;7.20;38.14;94882.88;4990026;28;20266;-65
2023/03/14 08:24:32;;;;;;;12.27;9.20;;;;;;;7.29;37.53;94877.63;4988921;28;20255;-65
2023/03/14 08:26:57;;;;;;;12.47;9.73;;;;;;;7.19;37.83;94874.19;4989249;28;20239;-64
2023/03/14 08:29:23;;;;;;;11.37;9.17;;;;;;;7.42;37.46;94879.19;4987242;28;20312;-64
2023/03/14 08:31:49;;;;;;;13.33;9.77;;;;;;;7.53;37.59;94870.38;4991574;28;20200;-64
2023/03/14 08:34:15;;;;;;;12.60;10.47;;;;;;;7.20;37.86;94864.56;4988076;28;20231;-64
2023/03/14 08:36:40;;;;;;;16.83;10.33;;;;;;;7.36;37.93;94870.09;4991371;28;20239;-64
2023/03/14 08:39:07;;;;;;;14.93;10.13;;;;;;;7.64;37.21;94862.38;4986309;28;20226;-64
2023/03/14 08:41:33;;;;;;;13.57;9.80;;;;;;;7.67;36.01;94862.09;4988656;28;20223;-65
2023/03/14 08:43:58;;;;;;;10.87;8.60;;;;;;;7.57;36.47;94867.34;4991372;28;20194;-63
2023/03/14 08:46:24;;;;;;;13.80;9.37;;;;;;;7.67;36.36;94851.63;4989142;28;20191;-63
2023/03/14 08:48:49;;;;;;;11.43;9.70;;;;;;;8.39;34.57;94843.31;4990603;28;20242;-63
2023/03/14 08:51:15;;;;;;;12.60;9.07;;;;;;;7.86;36.08;94842.97;4988509;28;20223;-64
2023/03/14 08:53:41;;;;;;;11.73;8.43;;;;;;;7.91;35.67;94828.50;4988840;28;20369;-64
2023/03/14 08:56:09;;;;;;;12.63;8.53;;;;;;;7.99;35.49;94838.25;4986811;28;20188;-65
2023/03/14 08:58:37;;;;;;;10.87;8.37;;;;;;;8.05;34.32;94821.19;4994074;28;20309;-64
2023/03/14 09:01:02;;;;;;;10.33;8.30;;;;;;;7.89;35.29;94827.81;4988070;28;20271;-64
2023/03/14 09:03:28;;;;;;;11.10;7.83;;;;;;;8.08;34.97;94818.28;4986995;28;20462;-63
2023/03/14 09:05:53;;;;;;;9.20;8.23;;;;;;;8.18;34.60;94819.09;4987786;28;20225;-64
2023/03/14 09:08:19;;;;;;;11.40;7.93;;;;;;;8.32;34.29;94816.00;4986111;28;20337;-65
2023/03/14 09:10:44;;;;;;;11.60;7.73;;;;;;;8.45;33.76;94807.03;4993782;28;20202;-64
2023/03/14 09:13:10;;;;;;;11.17;8.47;;;;;;;8.55;34.02;94807.78;4987921;28;20227;-60
2023/03/14 09:15:35;;;;;;;12.47;7.83;;;;;;;8.64;33.97;94799.09;4989776;28;20283;-64
2023/03/14 09:18:01;;;;;;;12.53;7.80;;;;;;;8.77;33.44;94794.31;4986666;28;20223;-64
2023/03/14 09:20:27;;;;;;;12.33;8.40;;;;;;;8.74;34.15;94789.38;4986368;28;20581;-62
2023/03/14 09:22:53;;;;;;;9.33;7.80;;;;;;;8.91;33.82;94782.50;4987821;28;20200;-64
2023/03/14 09:25:19;;;;;;;13.03;7.23;;;;;;;9.09;33.22;94777.31;4985296;28;20210;-63
2023/03/14 09:27:44;;;;;;;10.40;7.50;;;;;;;9.21;33.40;94776.09;4988473;28;20223;-63
2023/03/14 09:30:10;;;;;;;11.33;7.40;;;;;;;9.34;32.88;94773.09;4996071;28;20222;-66
2023/03/14 09:32:36;;;;;;;11.30;7.37;;;;;;;9.53;32.80;94763.44;4987309;28;20261;-64
2023/03/14 09:35:01;;;;;;;11.80;7.27;;;;;;;9.52;32.20;94759.97;4987368;28;20254;-62
2023/03/14 09:37:27;;;;;;;9.07;7.63;;;;;;;9.57;31.51;94755.09;4987328;28;20227;-64
2023/03/14 09:39:52;;;;;;;11.37;7.57;;;;;;;9.54;31.75;94750.13;4989367;28;20235;-64
2023/03/14 09:42:22;;;;;;;8.57;7.43;;;;;;;9.70;31.90;94737.16;4987043;28;20441;-65
2023/03/14 09:44:57;;;;;;;8.97;6.43;;;;;;;9.82;30.83;94739.53;4986094;28;20566;-62
2023/03/14 09:47:23;;;;;;;7.03;6.20;;;;;;;10.40;29.91;94732.81;4990332;28;20218;-66
2023/03/14 09:49:49;;;;;;;8.20;6.20;;;;;;;10.24;30.91;94725.66;4993748;28;20273;-68
2023/03/14 09:52:19;;;;;;;10.80;6.07;;;;;;;10.36;30.21;94722.63;4988101;28;20236;-66
2023/03/14 09:55:12;;;;;;;8.70;6.65;;;;;;;10.40;29.94;94722.28;4992660;28;20235;-64
2023/03/14 09:57:39;;;;;;;7.73;6.93;;;;;;;10.71;29.83;94720.78;4937148;28;20232;-65
2023/03/14 10:00:14;;;;;;;9.10;7.07;;;;;;;10.78;29.56;94718.34;4968837;28;20224;-65
2023/03/14 10:02:42;;;;;;;7.88;6.50;;;;;;;10.63;30.19;94712.03;4980198;28;20234;-65
2023/03/14 10:05:19;;;;;;;9.23;6.33;;;;;;;10.77;29.86;94708.78;4981398;28;20196;-68
2023/03/14 10:07:44;;;;;;;8.40;6.80;;;;;;;10.91;30.31;94699.47;4965557;28;20202;-67
2023/03/14 10:10:21;;;;;;;13.07;7.60;;;;;;;11.17;30.07;94700.19;4949731;28;20228;-65
2023/03/14 10:12:54;;;;;;;10.32;7.63;;;;;;;11.26;30.21;94688.66;4954645;28;20228;-66
2023/03/14 10:15:31;;;;;;;9.45;7.45;;;;;;;11.46;29.30;94680.41;4964377;28;20490;-64
2023/03/14 10:17:59;;;;;;;10.18;7.88;;;;;;;11.30;29.62;94680.41;4968959;28;20322;-65
2023/03/14 10:20:33;;;;;;;10.83;7.43;;;;;;;11.80;29.17;94671.50;4956905;28;20239;-66
2023/03/14 10:23:04;;;;;;;9.00;6.80;;;;;;;11.91;29.86;94669.34;4949649;28;20218;-65
2023/03/14 10:25:35;;;;;;;11.52;7.00;;;;;;;11.74;30.16;94659.81;4983025;28;21095;-68
2023/03/14 10:28:02;;;;;;;8.05;6.32;;;;;;;11.89;30.67;94649.44;4948826;28;20270;-64
2023/03/14 10:30:43;;;;;;;6.43;5.82;;;;;;;12.01;30.62;94642.00;4985373;28;20290;-65
2023/03/14 10:33:30;;;;;;;7.93;5.47;;;;;;;12.24;30.89;94636.81;4966369;28;20275;-67
2023/03/14 10:36:03;;;;;;;8.82;5.53;;;;;;;12.40;30.40;94639.38;4969580;28;20249;-66
2023/03/14 10:38:31;;;;;;;9.27;5.45;;;;;;;12.21;30.29;94629.25;4975655;28;20224;-65
2023/03/14 10:40:58;;;;;;;7.65;5.43;;;;;;;12.33;30.74;94626.06;4971811;28;20204;-62
2023/03/14 10:43:31;;;;;;;6.50;5.50;;;;;;;12.45;29.92;94617.75;4969551;28;20195;-65
2023/03/14 10:46:02;;;;;;;9.05;5.45;;;;;;;12.58;29.74;94607.47;4971188;28;20314;-64
2023/03/14 10:48:40;;;;;;;7.35;5.60;;;;;;;12.59;30.34;94598.59;4970541;28;20227;-63
2023/03/14 10:51:27;;;;;;;7.90;5.50;;;;;;;12.75;30.08;94590.56;4963305;28;20239;-65
2023/03/14 10:54:03;;;;;;;6.43;4.85;;;;;;;12.90;29.80;94581.88;4973344;28;20259;-64
2023/03/14 10:56:36;;;;;;;7.82;4.70;;;;;;;12.84;30.27;94570.22;4969673;28;20224;-65
2023/03/14 10:59:06;;;;;;;7.10;4.90;;;;;;;12.98;30.41;94569.44;4970118;28;20196;-65
2023/03/14 11:01:50;;;;;;;7.90;4.60;;;;;;;13.16;30.56;94563.03;4974082;28;20196;-65
2023/03/14 11:04:31;;;;;;;8.43;4.13;;;;;;;13.35;29.55;94559.91;4974040;28;20310;-66
2023/03/14 11:07:23;;;;;;;7.28;4.05;;;;;;;13.39;28.86;94553.28;4975493;28;20262;-65
2023/03/14 11:10:00;;;;;;;7.40;3.83;;;;;;;13.68;28.58;94552.47;4956577;28;20236;-65
2023/03/14 11:12:53;;;;;;;5.63;3.50;;;;;;;13.75;28.57;94541.97;4948329;28;20255;-65
2023/03/14 11:15:41;;;;;;;4.38;3.40;;;;;;;13.63;28.54;94538.16;4955634;28;20232;-66
2023/03/14 11:18:40;;;;;;;3.85;2.85;;;;;;;13.82;28.52;94528.84;4954261;28;20239;-67
2023/03/14 11:21:15;;;;;;;7.55;3.63;;;;;;;13.56;27.70;94516.13;4950760;28;20240;-66
2023/03/14 11:24:14;;;;;;;4.20;3.03;;;;;;;13.70;28.65;94519.75;4962830;28;20220;-65
2023/03/14 11:26:44;;;;;;;7.35;3.42;;;;;;;13.80;28.40;94496.53;4953217;28;20227;-65
2023/03/14 11:29:35;;;;;;;4.25;3.08;;;;;;;13.90;28.71;94492.59;4950570;28;20196;-67
2023/03/14 11:32:07;;;;;;;3.73;2.97;;;;;;;14.14;27.95;94485.34;4955383;28;20216;-68